Time;durP1;ratioP1;P1;durP2;ratioP2;P2;SDS_P1;SDS_P2;PMS_P1;PMS_P2;Temp;Humidity;BMP_temperature;BMP_pressure;BME280_temperature;BME280_humidity;BME280_pressure;Samples;Min_cycle;Max_cycle;Signal;HPM_P1;HPM_P2
2023/08/28 00:00:34;;;;;;;9.85;7.28;;;;;;;31.33;31.53;95461.25;5077527;28;20023;-30
2023/08/28 00:03:00;;;;;;;9.60;7.53;;;;;;;31.24;31.52;95471.13;5082936;28;20028;-31
2023/08/28 00:05:29;;;;;;;10.02;7.07;;;;;;;31.40;31.71;95480.00;5087961;28;20466;-31
2023/08/28 00:07:55;;;;;;;10.85;7.50;;;;;;;31.30;32.28;95479.22;5080662;28;20107;-31
2023/08/28 00:10:20;;;;;;;13.48;7.72;;;;;;;31.35;32.62;95470.53;5074556;28;20059;-31
2023/08/28 00:12:46;;;;;;;11.85;7.32;;;;;;;31.23;33.47;95477.31;5079277;28;20378;-32
2023/08/28 00:15:11;;;;;;;11.88;8.02;;;;;;;31.32;34.19;95474.50;5080350;28;20020;-31
2023/08/28 00:17:37;;;;;;;12.15;8.15;;;;;;;31.38;34.48;95477.03;5080231;28;20024;-30
2023/08/28 00:20:03;;;;;;;9.52;7.72;;;;;;;31.35;35.40;95478.94;5086241;28;20055;-31
2023/08/28 00:22:29;;;;;;;11.27;8.90;;;;;;;31.39;35.55;95484.13;5075043;28;20099;-31
2023/08/28 00:24:54;;;;;;;15.77;8.98;;;;;;;31.29;36.69;95469.34;5080027;28;20051;-31
2023/08/28 00:27:20;;;;;;;9.20;8.07;;;;;;;31.24;37.18;95473.94;5080194;28;20066;-31
2023/08/28 00:29:45;;;;;;;10.43;8.27;;;;;;;31.33;37.59;95480.84;5080706;28;20486;-30
2023/08/28 00:32:11;;;;;;;12.25;8.55;;;;;;;31.42;37.48;95471.72;5078203;28;20114;-30
2023/08/28 00:34:36;;;;;;;9.65;8.68;;;;;;;31.29;37.71;95472.88;5082213;28;20062;-30
2023/08/28 00:37:03;;;;;;;13.13;8.40;;;;;;;31.22;38.55;95476.56;5087642;28;20059;-32
2023/08/28 00:39:31;;;;;;;13.27;9.00;;;;;;;31.48;38.62;95483.38;5081117;28;20051;-30
2023/08/28 00:41:56;;;;;;;10.35;8.52;;;;;;;31.31;38.97;95483.50;5078778;28;20476;-31
2023/08/28 00:44:22;;;;;;;10.98;9.20;;;;;;;31.32;39.04;95484.97;5082659;28;20031;-31
2023/08/28 00:46:47;;;;;;;13.50;9.00;;;;;;;31.21;40.14;95477.16;5083834;28;20012;-31
2023/08/28 00:49:13;;;;;;;12.63;9.88;;;;;;;31.29;40.39;95477.75;5083830;28;20016;-30
2023/08/28 00:51:40;;;;;;;11.30;10.07;;;;;;;31.13;40.81;95456.97;5083882;28;20020;-30
2023/08/28 00:54:07;;;;;;;12.07;10.27;;;;;;;31.26;41.51;95462.88;5083583;28;20055;-31
2023/08/28 00:56:35;;;;;;;13.50;9.55;;;;;;;31.16;42.36;95467.72;5083977;28;20024;-31
2023/08/28 00:59:00;;;;;;;12.35;10.25;;;;;;;31.14;42.88;95461.25;5075301;28;20085;-30
2023/08/28 01:01:26;;;;;;;12.40;10.40;;;;;;;31.26;42.48;95454.47;5079878;28;20490;-30
2023/08/28 01:03:51;;;;;;;14.60;10.45;;;;;;;31.26;43.43;95467.75;5086963;28;20026;-31
2023/08/28 01:06:44;;;;;;;17.17;10.68;;;;;;;31.19;44.27;95460.94;5084788;28;20027;-31
2023/08/28 01:09:27;;;;;;;12.43;10.85;;;;;;;31.16;44.54;95464.19;5083245;28;20035;-31
2023/08/28 01:12:12;;;;;;;13.18;11.02;;;;;;;31.17;45.09;95457.25;5081608;28;20082;-31
2023/08/28 01:15:12;;;;;;;13.13;10.30;;;;;;;31.27;45.03;95463.63;5076828;28;20055;-31
2023/08/28 01:17:40;;;;;;;15.30;11.05;;;;;;;31.23;45.66;95455.66;5083478;28;20039;-31
2023/08/28 01:20:11;;;;;;;14.00;10.98;;;;;;;31.18;46.03;95465.06;5083520;28;20028;-30
2023/08/28 01:23:14;;;;;;;16.05;10.63;;;;;;;31.31;46.12;95463.91;5083495;28;20032;-30
2023/08/28 01:25:41;;;;;;;14.48;10.65;;;;;;;31.17;47.17;95474.06;5090334;28;20068;-31
2023/08/28 01:28:07;;;;;;;17.58;12.07;;;;;;;31.24;46.73;95490.72;5081586;28;20435;-31
2023/08/28 01:30:32;;;;;;;16.02;11.52;;;;;;;31.11;47.76;95507.22;5078162;28;20031;-31
2023/08/28 01:32:58;;;;;;;20.10;12.27;;;;;;;31.23;48.91;95513.72;5083648;28;20031;-31
2023/08/28 01:35:29;;;;;;;17.02;12.07;;;;;;;31.37;48.71;95500.78;5089564;28;20043;-31
2023/08/28 01:38:24;;;;;;;16.08;12.40;;;;;;;31.31;49.50;95508.72;5076617;28;20056;-31
2023/08/28 01:40:59;;;;;;;18.10;12.30;;;;;;;31.29;50.23;95514.91;5076537;28;20093;-30
2023/08/28 01:43:28;;;;;;;16.20;12.48;;;;;;;31.15;50.79;95511.06;5083128;28;20017;-32
2023/08/28 01:45:54;;;;;;;19.42;12.20;;;;;;;31.27;50.37;95503.56;5083013;28;20036;-32
2023/08/28 01:48:20;;;;;;;16.23;12.38;;;;;;;31.16;50.99;95495.72;5082772;28;20497;-30
2023/08/28 01:50:46;;;;;;;16.08;11.57;;;;;;;31.13;51.20;95491.31;5082822;28;20021;-30
2023/08/28 01:53:12;;;;;;;13.95;11.68;;;;;;;31.32;50.51;95456.97;5084897;28;20038;-31
2023/08/28 01:55:46;;;;;;;14.52;12.00;;;;;;;31.24;51.09;95459.19;5087520;28;20028;-31
2023/08/28 01:58:12;;;;;;;14.35;11.77;;;;;;;31.30;51.12;95470.81;5083095;28;20028;-30
2023/08/28 02:00:38;;;;;;;14.80;12.38;;;;;;;31.24;51.53;95476.72;5080657;28;20024;-31
2023/08/28 02:03:09;;;;;;;19.10;12.25;;;;;;;31.03;52.18;95496.84;5077857;28;20501;-30
2023/08/28 02:05:34;;;;;;;19.55;12.25;;;;;;;31.27;50.60;95489.56;5078756;28;20024;-30
2023/08/28 02:08:00;;;;;;;13.77;10.65;;;;;;;31.12;50.83;95489.09;5078570;28;20066;-31
2023/08/28 02:10:25;;;;;;;13.23;9.93;;;;;;;31.15;49.62;95487.94;5083840;28;20012;-31
2023/08/28 02:12:51;;;;;;;18.02;9.65;;;;;;;31.16;47.86;95450.19;5085647;28;20069;-31
2023/08/28 02:15:16;;;;;;;13.07;8.07;;;;;;;30.95;47.04;95443.06;5076058;28;20389;-32
2023/08/28 02:17:42;;;;;;;13.57;7.78;;;;;;;31.11;46.88;95448.41;5084274;28;20022;-31
2023/08/28 02:20:10;;;;;;;11.32;8.05;;;;;;;31.12;46.33;95428.22;5085641;28;20020;-30
2023/08/28 02:22:36;;;;;;;13.95;7.75;;;;;;;30.90;46.10;95434.94;5084335;28;20459;-30
2023/08/28 02:25:01;;;;;;;12.90;6.68;;;;;;;31.13;45.32;95442.97;5080674;28;20024;-30
2023/08/28 02:27:27;;;;;;;11.70;6.22;;;;;;;30.94;44.36;95418.44;5082525;28;20488;-31
2023/08/28 02:29:52;;;;;;;10.35;6.13;;;;;;;31.01;44.16;95407.13;5077987;28;20024;-30
2023/08/28 02:32:18;;;;;;;7.50;5.40;;;;;;;31.12;42.31;95421.88;5079391;28;20099;-31
2023/08/28 02:34:43;;;;;;;7.20;4.97;;;;;;;31.07;42.22;95415.94;5082179;28;20028;-31
2023/08/28 02:37:09;;;;;;;9.55;4.63;;;;;;;30.97;41.82;95423.59;5078997;28;20372;-30
2023/08/28 02:39:34;;;;;;;5.82;4.55;;;;;;;31.21;40.62;95404.34;5084297;28;20037;-30
2023/08/28 02:42:00;;;;;;;9.10;4.55;;;;;;;31.01;39.76;95412.72;5089558;28;20028;-31
2023/08/28 02:44:25;;;;;;;5.75;3.53;;;;;;;31.13;39.54;95417.75;5081757;28;20020;-30
2023/08/28 02:46:50;;;;;;;10.40;4.47;;;;;;;30.95;39.51;95417.13;5082144;28;20737;-30
2023/08/28 02:49:16;;;;;;;5.50;3.50;;;;;;;30.99;38.99;95432.16;5074671;28;20024;-30
2023/08/28 02:51:41;;;;;;;6.85;3.22;;;;;;;30.82;39.63;95423.88;5081325;28;20020;-31
2023/08/28 02:54:08;;;;;;;4.10;2.83;;;;;;;30.95;39.52;95420.66;5081293;28;20043;-31
2023/08/28 02:56:43;;;;;;;5.40;3.00;;;;;;;30.83;39.28;95397.34;5086721;28;20496;-31
2023/08/28 02:59:08;;;;;;;7.30;3.03;;;;;;;30.96;38.80;95373.78;5074974;28;20040;-31
2023/08/28 03:01:37;;;;;;;4.78;2.75;;;;;;;30.69;39.06;95388.63;5081371;28;20096;-30
2023/08/28 03:04:06;;;;;;;8.82;2.85;;;;;;;30.93;38.54;95420.50;5081090;28;20034;-31
2023/08/28 03:06:38;;;;;;;5.63;2.47;;;;;;;30.70;38.93;95445.34;5081277;28;20382;-30
2023/08/28 03:09:05;;;;;;;7.68;2.78;;;;;;;30.77;39.36;95444.50;5081222;28;20377;-31
2023/08/28 03:11:30;;;;;;;4.07;2.53;;;;;;;30.81;39.22;95427.25;5083534;28;20028;-30
2023/08/28 03:13:56;;;;;;;4.75;2.05;;;;;;;30.64;38.98;95442.84;5084875;28;20028;-31
2023/08/28 03:16:21;;;;;;;4.43;1.98;;;;;;;30.76;39.00;95433.88;5082655;28;20027;-31
2023/08/28 03:18:48;;;;;;;4.85;2.25;;;;;;;30.64;39.38;95414.88;5083440;28;20024;-31
2023/08/28 03:21:14;;;;;;;5.70;2.20;;;;;;;30.82;38.47;95383.94;5084781;28;20389;-30
2023/08/28 03:23:40;;;;;;;3.83;1.95;;;;;;;30.58;38.43;95368.88;5088379;28;20032;-31
2023/08/28 03:26:05;;;;;;;4.35;1.98;;;;;;;30.46;38.37;95398.72;5080823;28;20031;-30
2023/08/28 03:28:31;;;;;;;4.63;1.67;;;;;;;30.49;37.43;95409.50;5080650;28;20016;-30
2023/08/28 03:31:00;;;;;;;3.33;1.70;;;;;;;30.54;37.84;95399.38;5088201;28;20478;-30
2023/08/28 03:33:25;;;;;;;3.70;1.60;;;;;;;30.56;37.11;95352.69;5080636;28;20107;-30
2023/08/28 03:35:51;;;;;;;7.18;2.03;;;;;;;30.74;37.42;95332.97;5083256;28;20127;-30
2023/08/28 03:38:17;;;;;;;4.13;1.58;;;;;;;30.68;38.38;95316.47;5079012;28;20500;-31
2023/08/28 03:40:44;;;;;;;4.32;1.60;;;;;;;30.53;39.29;95325.13;5088065;28;20044;-31
2023/08/28 03:43:10;;;;;;;6.50;1.92;;;;;;;30.55;39.95;95306.44;5083859;28;20106;-31
2023/08/28 03:45:36;;;;;;;7.82;1.75;;;;;;;30.71;40.53;95304.09;5084349;28;20055;-31
2023/08/28 03:48:01;;;;;;;5.35;1.73;;;;;;;30.65;40.97;95349.19;5075267;28;20036;-30
2023/08/28 03:50:30;;;;;;;6.05;1.77;;;;;;;30.56;40.78;95394.66;5078896;28;20017;-31
2023/08/28 03:52:59;;;;;;;3.88;1.65;;;;;;;30.55;41.13;95406.44;5080553;28;20074;-31
2023/08/28 03:55:24;;;;;;;5.25;1.88;;;;;;;30.14;41.63;95397.75;5077221;28;20020;-31
2023/08/28 03:57:51;;;;;;;3.05;1.30;;;;;;;30.34;41.07;95382.50;5083981;28;20032;-30
2023/08/28 04:00:18;;;;;;;6.10;1.30;;;;;;;30.42;41.06;95384.41;5080848;28;20107;-30
2023/08/28 04:02:45;;;;;;;3.67;1.55;;;;;;;30.46;40.88;95379.13;5080132;28;20386;-31
2023/08/28 04:05:11;;;;;;;4.60;1.60;;;;;;;30.23;41.81;95324.31;5074200;28;20390;-30
2023/08/28 04:07:36;;;;;;;5.03;1.58;;;;;;;30.24;41.68;95289.44;5082580;28;20015;-30
2023/08/28 04:10:02;;;;;;;4.53;1.70;;;;;;;30.27;41.71;95243.53;5076312;28;20103;-30
2023/08/28 04:12:28;;;;;;;3.30;1.50;;;;;;;30.16;41.62;95255.28;5080200;28;20062;-30
2023/08/28 04:14:53;;;;;;;5.28;1.45;;;;;;;30.20;40.91;95244.38;5079134;28;20025;-31
2023/08/28 04:17:19;;;;;;;3.30;1.58;;;;;;;30.26;40.37;95250.44;5071559;28;20025;-30
2023/08/28 04:19:45;;;;;;;3.08;1.58;;;;;;;30.36;40.54;95256.78;5080802;28;20028;-30
2023/08/28 04:22:11;;;;;;;4.63;2.00;;;;;;;30.39;40.77;95294.03;5080003;28;20032;-30
2023/08/28 04:24:36;;;;;;;3.75;1.73;;;;;;;30.33;42.08;95336.25;5080491;28;20461;-30
2023/08/28 04:27:02;;;;;;;4.63;1.70;;;;;;;30.25;42.12;95346.84;5080116;28;20394;-30
2023/08/28 04:29:28;;;;;;;7.80;1.80;;;;;;;30.15;43.07;95346.09;5080047;28;20384;-31
2023/08/28 04:31:53;;;;;;;6.78;1.83;;;;;;;30.05;42.67;95338.97;5080432;28;20032;-31
2023/08/28 04:34:18;;;;;;;4.32;1.73;;;;;;;30.28;41.89;95370.13;5079093;28;20074;-30
2023/08/28 04:36:44;;;;;;;5.35;1.60;;;;;;;30.17;42.56;95349.00;5073859;28;20036;-30
2023/08/28 04:39:09;;;;;;;4.45;1.40;;;;;;;30.12;42.88;95344.44;5079184;28;20119;-30
2023/08/28 04:41:35;;;;;;;5.05;1.48;;;;;;;30.24;42.33;95342.56;5080297;28;20516;-30
2023/08/28 04:44:01;;;;;;;4.20;1.60;;;;;;;29.94;43.50;95338.16;5075069;28;20095;-30
2023/08/28 04:46:28;;;;;;;5.60;1.60;;;;;;;29.91;43.36;95338.63;5077858;28;20021;-31
2023/08/28 04:48:54;;;;;;;3.80;1.25;;;;;;;30.11;42.86;95326.19;5079867;28;20048;-31
2023/08/28 04:51:19;;;;;;;9.82;2.03;;;;;;;30.14;43.36;95330.63;5079669;28;20047;-30
2023/08/28 04:53:45;;;;;;;5.03;1.40;;;;;;;29.99;43.48;95330.88;5079842;28;20070;-30
2023/08/28 04:56:11;;;;;;;4.85;1.52;;;;;;;29.98;43.61;95318.22;5075521;28;20024;-30
2023/08/28 04:58:37;;;;;;;7.57;1.98;;;;;;;29.84;43.59;95333.88;5083476;28;20095;-30
2023/08/28 05:01:02;;;;;;;5.50;2.00;;;;;;;29.82;43.84;95334.44;5082265;28;20116;-31
2023/08/28 05:03:27;;;;;;;7.95;2.10;;;;;;;29.82;44.71;95319.72;5083437;28;20023;-30
2023/08/28 05:05:54;;;;;;;11.55;2.70;;;;;;;29.71;45.40;95306.31;5084220;28;20366;-31
2023/08/28 05:08:20;;;;;;;9.52;1.92;;;;;;;29.59;45.99;95309.63;5080005;28;20515;-30
2023/08/28 05:10:45;;;;;;;10.00;2.97;;;;;;;29.72;45.56;95318.97;5076989;28;20023;-31
2023/08/28 05:13:10;;;;;;;6.32;2.15;;;;;;;29.60;46.46;95324.34;5075244;28;20074;-30
2023/08/28 05:15:36;;;;;;;9.35;3.13;;;;;;;29.64;45.75;95319.81;5082558;28;20020;-31
2023/08/28 05:18:01;;;;;;;7.80;2.03;;;;;;;29.72;46.10;95296.59;5077015;28;20409;-30
2023/08/28 05:20:28;;;;;;;13.18;2.90;;;;;;;29.62;46.47;95302.16;5073093;28;20493;-31
2023/08/28 05:22:54;;;;;;;10.10;2.75;;;;;;;29.71;46.22;95295.88;5083167;28;20038;-31
2023/08/28 05:25:19;;;;;;;8.35;2.90;;;;;;;29.74;46.17;95310.72;5076956;28;20028;-30
2023/08/28 05:27:45;;;;;;;8.15;2.80;;;;;;;29.67;46.48;95315.13;5085568;28;20021;-32
2023/08/28 05:30:11;;;;;;;5.80;2.38;;;;;;;29.67;46.15;95307.47;5086479;28;20077;-30
2023/08/28 05:32:36;;;;;;;9.32;2.30;;;;;;;29.59;46.61;95295.66;5085321;28;20028;-31
2023/08/28 05:35:03;;;;;;;6.78;2.20;;;;;;;29.50;46.90;95273.28;5082863;28;20450;-30
2023/08/28 05:37:29;;;;;;;7.13;2.30;;;;;;;29.46;46.70;95292.50;5082467;28;20427;-31
2023/08/28 05:39:54;;;;;;;5.68;2.08;;;;;;;29.63;46.62;95290.41;5083591;28;20050;-32
2023/08/28 05:42:20;;;;;;;6.72;2.63;;;;;;;29.44;47.04;95295.88;5080885;28;20020;-30
2023/08/28 05:44:45;;;;;;;4.47;1.73;;;;;;;29.53;46.44;95289.63;5085530;28;20520;-31
2023/08/28 05:47:11;;;;;;;7.63;2.28;;;;;;;29.47;46.65;95277.22;5078518;28;20019;-31
2023/08/28 05:49:37;;;;;;;5.68;2.22;;;;;;;29.43;47.04;95274.84;5079290;28;20032;-31
2023/08/28 05:52:02;;;;;;;9.48;2.17;;;;;;;29.35;47.16;95265.81;5084440;28;20028;-31
2023/08/28 05:54:29;;;;;;;6.82;2.20;;;;;;;29.43;47.31;95255.28;5085770;28;20020;-31
2023/08/28 05:56:54;;;;;;;8.82;2.15;;;;;;;29.61;46.95;95264.34;5084836;28;20032;-31
2023/08/28 05:59:20;;;;;;;11.82;2.70;;;;;;;29.48;47.40;95234.75;5085713;28;20078;-30
2023/08/28 06:01:45;;;;;;;16.00;4.05;;;;;;;29.61;47.39;95265.09;5086069;28;20027;-31
2023/08/28 06:04:11;;;;;;;12.10;3.15;;;;;;;29.39;47.83;95282.94;5083555;28;20020;-31
2023/08/28 06:06:38;;;;;;;11.90;2.58;;;;;;;29.22;48.03;95263.41;5082529;28;20519;-30
2023/08/28 06:09:04;;;;;;;11.10;2.85;;;;;;;29.41;47.44;95257.97;5077524;28;20028;-30
2023/08/28 06:11:29;;;;;;;8.05;2.30;;;;;;;29.38;47.71;95253.53;5078542;28;20376;-31
2023/08/28 06:13:55;;;;;;;9.80;2.83;;;;;;;29.19;48.27;95203.13;5081149;28;20025;-31
2023/08/28 06:16:20;;;;;;;7.90;2.67;;;;;;;29.35;47.89;95204.38;5082319;28;20027;-31
2023/08/28 06:18:46;;;;;;;12.10;2.80;;;;;;;29.43;47.36;95196.66;5078337;28;20016;-30
2023/08/28 06:21:11;;;;;;;6.90;2.33;;;;;;;29.50;47.17;95192.28;5078703;28;20020;-30
2023/08/28 06:23:37;;;;;;;10.07;2.75;;;;;;;29.48;47.52;95186.53;5089690;28;20063;-31
2023/08/28 06:26:03;;;;;;;7.88;2.53;;;;;;;29.44;47.61;95192.53;5079792;28;20035;-31
2023/08/28 06:28:29;;;;;;;7.85;2.28;;;;;;;29.40;47.92;95205.47;5084683;28;20031;-31
2023/08/28 06:30:55;;;;;;;9.57;2.45;;;;;;;29.48;47.52;95243.13;5082129;28;20028;-31
2023/08/28 06:33:21;;;;;;;9.05;2.47;;;;;;;29.30;48.49;95208.19;5088531;28;20028;-30
2023/08/28 06:35:46;;;;;;;8.43;2.42;;;;;;;29.37;47.92;95218.50;5075194;28;20024;-32
2023/08/28 06:38:12;;;;;;;6.75;2.25;;;;;;;29.36;48.16;95191.16;5077882;28;20458;-32
2023/08/28 06:40:38;;;;;;;10.20;2.30;;;;;;;29.47;47.96;95199.75;5077539;28;20044;-31
2023/08/28 06:43:03;;;;;;;12.90;2.63;;;;;;;29.38;48.07;95231.19;5082254;28;20445;-31
2023/08/28 06:45:30;;;;;;;9.57;2.45;;;;;;;29.43;47.83;95224.56;5081972;28;20111;-30
2023/08/28 06:47:57;;;;;;;8.85;2.55;;;;;;;29.30;48.14;95202.63;5080924;28;20013;-30
2023/08/28 06:50:23;;;;;;;9.15;2.53;;;;;;;29.33;48.61;95206.28;5084588;28;20417;-31
2023/08/28 06:52:48;;;;;;;11.80;2.70;;;;;;;29.47;48.21;95210.19;5084339;28;20099;-30
2023/08/28 06:55:14;;;;;;;8.02;1.98;;;;;;;29.30;48.53;95219.38;5076887;28;20016;-31
2023/08/28 06:57:39;;;;;;;10.15;2.35;;;;;;;29.16;49.08;95226.66;5085176;28;20106;-31
2023/08/28 07:00:06;;;;;;;9.10;2.70;;;;;;;29.31;48.88;95210.38;5076175;28;20052;-31
2023/08/28 07:02:32;;;;;;;9.77;2.53;;;;;;;29.43;48.27;95213.41;5084422;28;20015;-30
2023/08/28 07:04:57;;;;;;;9.65;3.08;;;;;;;29.34;48.19;95239.22;5077194;28;20385;-30
2023/08/28 07:07:23;;;;;;;9.57;2.63;;;;;;;29.16;48.66;95237.81;5082901;28;20023;-30
2023/08/28 07:09:48;;;;;;;11.05;2.67;;;;;;;29.11;49.40;95236.00;5079620;28;20096;-30
2023/08/28 07:12:14;;;;;;;10.80;3.90;;;;;;;29.26;49.04;95225.38;5081046;28;20024;-30
2023/08/28 07:14:40;;;;;;;10.68;2.95;;;;;;;29.34;48.58;95222.44;5081004;28;20057;-31
2023/08/28 07:17:06;;;;;;;9.38;3.10;;;;;;;29.36;48.69;95219.81;5081076;28;20024;-31
2023/08/28 07:19:31;;;;;;;8.10;2.72;;;;;;;29.25;49.39;95221.09;5082900;28;20025;-30
2023/08/28 07:21:59;;;;;;;8.50;3.10;;;;;;;29.24;49.50;95218.88;5084489;28;20024;-31
2023/08/28 07:24:25;;;;;;;6.97;2.35;;;;;;;29.35;49.47;95235.09;5083202;28;20020;-30
2023/08/28 07:26:51;;;;;;;9.75;2.65;;;;;;;29.23;49.57;95234.91;5077091;28;20065;-31
2023/08/28 07:29:17;;;;;;;5.40;2.35;;;;;;;29.30;49.65;95248.00;5078142;28;20030;-31
2023/08/28 07:31:43;;;;;;;5.22;2.58;;;;;;;29.13;50.22;95238.97;5081818;28;20022;-31
2023/08/28 07:34:08;;;;;;;5.47;2.25;;;;;;;29.27;50.10;95238.00;5084054;28;20028;-30
2023/08/28 07:36:37;;;;;;;8.95;2.30;;;;;;;29.12;50.22;95232.63;5075983;28;20020;-30
2023/08/28 07:39:02;;;;;;;9.18;2.50;;;;;;;29.41;49.92;95218.13;5088363;28;20049;-30
2023/08/28 07:41:28;;;;;;;13.57;2.97;;;;;;;29.36;50.44;95211.44;5087384;28;20028;-30
2023/08/28 07:43:53;;;;;;;10.13;2.65;;;;;;;29.35;49.79;95209.97;5082008;28;20026;-30
2023/08/28 07:46:19;;;;;;;6.18;2.25;;;;;;;29.28;49.74;95219.22;5073906;28;20350;-30
2023/08/28 07:48:44;;;;;;;9.88;2.15;;;;;;;29.23;49.87;95223.00;5087692;28;20054;-30
2023/08/28 07:51:10;;;;;;;14.07;3.35;;;;;;;28.94;51.36;95228.41;5080571;28;20025;-30
2023/08/28 07:53:35;;;;;;;17.67;2.95;;;;;;;29.12;50.56;95234.69;5079378;28;20024;-30
2023/08/28 07:56:02;;;;;;;6.47;1.95;;;;;;;29.11;50.85;95233.22;5075495;28;20039;-30
2023/08/28 07:58:29;;;;;;;6.10;2.28;;;;;;;29.16;50.72;95215.47;5080526;28;20098;-30
2023/08/28 08:00:55;;;;;;;8.65;2.63;;;;;;;29.09;50.81;95222.63;5080799;28;20461;-31
2023/08/28 08:03:21;;;;;;;7.93;1.85;;;;;;;29.19;50.36;95229.00;5083137;28;20031;-31
2023/08/28 08:05:47;;;;;;;6.70;2.00;;;;;;;29.30;50.02;95224.94;5085397;28;20024;-30
2023/08/28 08:08:12;;;;;;;8.18;3.05;;;;;;;29.25;50.32;95212.72;5080127;28;20024;-30
2023/08/28 08:10:38;;;;;;;7.07;2.28;;;;;;;29.23;50.72;95220.94;5080387;28;20035;-30
2023/08/28 08:13:04;;;;;;;8.85;2.22;;;;;;;29.07;51.66;95214.09;5072164;28;20052;-30
2023/08/28 08:15:31;;;;;;;7.57;1.92;;;;;;;29.27;51.59;95206.56;5082421;28;20020;-30
2023/08/28 08:17:57;;;;;;;7.95;2.60;;;;;;;29.23;51.67;95212.56;5077692;28;20021;-30
2023/08/28 08:20:22;;;;;;;5.68;2.20;;;;;;;29.31;52.00;95193.63;5087632;28;20054;-30
2023/08/28 08:22:48;;;;;;;8.50;2.45;;;;;;;29.47;52.16;95199.75;5083502;28;20055;-31
2023/08/28 08:25:13;;;;;;;10.90;2.42;;;;;;;29.42;51.83;95195.19;5077071;28;20027;-31
2023/08/28 08:27:39;;;;;;;6.95;2.30;;;;;;;29.50;51.67;95181.09;5080681;28;20021;-30
2023/08/28 08:30:07;;;;;;;8.75;2.70;;;;;;;29.03;52.58;95157.97;5085147;28;20027;-30
2023/08/28 08:32:32;;;;;;;8.70;1.90;;;;;;;29.25;51.81;95172.91;5082651;28;20025;-30
2023/08/28 08:34:59;;;;;;;7.05;2.67;;;;;;;29.40;51.58;95172.69;5083645;28;20030;-30
2023/08/28 08:37:28;;;;;;;11.75;2.65;;;;;;;29.31;51.64;95167.75;5083886;28;20025;-30
2023/08/28 08:39:54;;;;;;;10.10;2.88;;;;;;;29.35;51.29;95148.53;5079865;28;20059;-30
2023/08/28 08:42:19;;;;;;;5.13;1.88;;;;;;;28.98;52.24;95142.22;5078113;28;20369;-31
2023/08/28 08:44:45;;;;;;;6.03;1.85;;;;;;;29.35;51.69;95122.66;5075352;28;20031;-30
2023/08/28 08:47:11;;;;;;;8.02;2.28;;;;;;;29.21;50.95;95133.50;5080101;28;20020;-30
2023/08/28 08:49:39;;;;;;;10.57;2.50;;;;;;;29.00;51.04;95125.63;5072771;28;20499;-31
2023/08/28 08:52:07;;;;;;;10.98;2.15;;;;;;;28.80;51.08;95124.06;5081473;28;20036;-31
2023/08/28 08:54:41;;;;;;;9.13;2.35;;;;;;;29.08;50.05;95143.00;5078034;28;20047;-30
2023/08/28 08:57:42;;;;;;;7.22;2.45;;;;;;;28.86;49.76;95171.97;5079824;28;20020;-31
2023/08/28 09:00:13;;;;;;;5.88;2.28;;;;;;;29.01;49.98;95182.94;5079648;28;20047;-31
2023/08/28 09:02:41;;;;;;;7.90;2.20;;;;;;;29.19;50.21;95201.06;5083960;28;20462;-30
2023/08/28 09:05:06;;;;;;;3.38;1.52;;;;;;;29.06;50.78;95183.97;5076435;28;20028;-30
2023/08/28 09:07:33;;;;;;;6.25;1.95;;;;;;;28.99;51.29;95170.84;5086778;28;20046;-30
2023/08/28 09:09:59;;;;;;;10.77;2.13;;;;;;;29.23;51.15;95164.34;5080115;28;20405;-30
2023/08/28 09:12:24;;;;;;;8.52;2.30;;;;;;;29.16;51.48;95177.13;5083911;28;20020;-30
2023/08/28 09:14:50;;;;;;;13.98;2.58;;;;;;;28.75;52.53;95239.41;5081115;28;20427;-30
2023/08/28 09:17:16;;;;;;;16.00;3.75;;;;;;;28.75;52.33;95282.00;5079011;28;20031;-30
2023/08/28 09:19:44;;;;;;;20.08;5.28;;;;;;;28.32;53.17;95241.56;5084212;28;20054;-30
2023/08/28 09:22:10;;;;;;;9.90;3.13;;;;;;;28.83;51.17;95243.63;5083191;28;20473;-30
2023/08/28 09:24:37;;;;;;;7.15;2.85;;;;;;;28.34;51.09;95230.59;5083388;28;20035;-30
2023/08/28 09:27:03;;;;;;;6.60;2.05;;;;;;;28.38;50.63;95236.50;5083370;28;20050;-30
2023/08/28 09:29:29;;;;;;;7.53;2.20;;;;;;;28.45;50.30;95230.09;5083526;28;20020;-31
2023/08/28 09:32:05;;;;;;;6.28;2.00;;;;;;;28.54;50.31;95223.13;5079039;28;20031;-31
2023/08/28 09:34:41;;;;;;;6.32;1.80;;;;;;;28.42;52.40;95216.56;5086629;28;20103;-30
2023/08/28 09:37:11;;;;;;;5.63;2.10;;;;;;;28.58;53.64;95209.50;5079652;28;20424;-31
2023/08/28 09:39:57;;;;;;;4.25;1.63;;;;;;;28.80;53.02;95224.53;5085798;28;20124;-30
2023/08/28 09:42:24;;;;;;;7.00;1.92;;;;;;;28.57;54.01;95227.53;5083000;28;20437;-31
2023/08/28 09:44:50;;;;;;;8.18;1.80;;;;;;;28.75;53.65;95223.41;5083427;28;20030;-31
2023/08/28 09:47:22;;;;;;;5.85;1.58;;;;;;;28.86;52.58;95217.34;5086454;28;20091;-31
2023/08/28 09:49:51;;;;;;;6.38;1.88;;;;;;;28.60;52.19;95223.59;5078356;28;20099;-30
2023/08/28 09:52:26;;;;;;;7.30;1.88;;;;;;;28.70;51.76;95215.28;5078782;28;20024;-31
2023/08/28 09:55:04;;;;;;;4.97;1.40;;;;;;;28.77;51.38;95214.47;5077490;28;20023;-31
2023/08/28 09:57:31;;;;;;;5.97;1.70;;;;;;;28.78;51.83;95216.72;5082966;28;20016;-31
2023/08/28 09:59:57;;;;;;;6.05;2.00;;;;;;;28.78;51.56;95211.16;5089959;28;20062;-31
2023/08/28 10:02:24;;;;;;;8.77;2.10;;;;;;;28.85;51.06;95212.34;5082990;28;20027;-31
2023/08/28 10:04:52;;;;;;;8.32;2.28;;;;;;;28.79;51.09;95212.63;5088909;28;20517;-31
2023/08/28 10:07:22;;;;;;;4.55;1.50;;;;;;;28.78;51.23;95191.63;5083581;28;20024;-31
2023/08/28 10:09:50;;;;;;;6.03;1.80;;;;;;;28.85;51.46;95193.56;5087812;28;20153;-30
2023/08/28 10:12:16;;;;;;;9.95;1.85;;;;;;;28.74;51.45;95201.69;5083913;28;20020;-31
2023/08/28 10:14:44;;;;;;;5.93;1.75;;;;;;;28.75;50.86;95206.69;5082193;28;20027;-31
2023/08/28 10:17:13;;;;;;;5.40;2.03;;;;;;;28.34;51.50;95224.28;5082594;28;20073;-31
2023/08/28 10:19:44;;;;;;;7.03;1.80;;;;;;;28.11;51.71;95216.13;5082866;28;20153;-31
2023/08/28 10:22:11;;;;;;;9.57;2.40;;;;;;;28.18;51.39;95209.78;5081223;28;20048;-30
2023/08/28 10:24:42;;;;;;;7.50;1.70;;;;;;;28.44;50.83;95223.03;5082143;28;20386;-31
2023/08/28 10:27:08;;;;;;;4.50;1.52;;;;;;;28.31;51.02;95231.00;5082494;28;20017;-32
2023/08/28 10:29:34;;;;;;;8.27;2.40;;;;;;;28.36;51.15;95232.81;5075106;28;20094;-30
2023/08/28 10:32:01;;;;;;;9.82;2.30;;;;;;;28.55;50.46;95224.59;5082130;28;20052;-32
2023/08/28 10:34:28;;;;;;;8.77;2.08;;;;;;;28.21;51.36;95234.44;5081801;28;20028;-30
2023/08/28 10:36:55;;;;;;;4.53;2.03;;;;;;;28.50;51.22;95228.38;5077009;28;20016;-32
2023/08/28 10:39:21;;;;;;;8.38;2.33;;;;;;;28.32;51.40;95235.25;5084833;28;20127;-30
2023/08/28 10:41:48;;;;;;;7.20;2.50;;;;;;;28.33;51.29;95240.25;5076307;28;20021;-31
2023/08/28 10:44:14;;;;;;;9.88;2.60;;;;;;;28.25;51.11;95250.75;5088483;28;20024;-31
2023/08/28 10:46:40;;;;;;;15.90;3.08;;;;;;;28.47;50.59;95237.88;5074718;28;20024;-31
2023/08/28 10:49:07;;;;;;;10.25;2.08;;;;;;;28.24;51.93;95235.34;5084156;28;20037;-31
2023/08/28 10:51:37;;;;;;;9.27;2.60;;;;;;;28.27;52.01;95236.25;5079595;28;20378;-31
2023/08/28 10:54:04;;;;;;;8.35;2.58;;;;;;;28.29;52.43;95239.94;5081774;28;20103;-31
2023/08/28 10:56:34;;;;;;;12.10;2.38;;;;;;;28.51;52.36;95249.38;5081646;28;20125;-31
2023/08/28 10:59:17;;;;;;;9.02;2.35;;;;;;;28.41;52.56;95245.78;5081493;28;20025;-31
2023/08/28 11:01:56;;;;;;;10.38;2.17;;;;;;;28.43;51.08;95243.88;5081505;28;20050;-31
2023/08/28 11:04:23;;;;;;;12.40;2.33;;;;;;;28.58;50.73;95231.81;5081631;28;20115;-30
2023/08/28 11:06:49;;;;;;;11.63;2.40;;;;;;;28.45;49.48;95246.06;5081235;28;20543;-31
2023/08/28 11:09:29;;;;;;;8.80;1.90;;;;;;;28.52;49.15;95242.47;5082325;28;20055;-31
2023/08/28 11:11:58;;;;;;;14.05;2.17;;;;;;;28.48;48.89;95239.34;5084580;28;20020;-31
2023/08/28 11:14:24;;;;;;;12.50;2.03;;;;;;;28.48;48.25;95233.78;5083217;28;20035;-31
2023/08/28 11:17:15;;;;;;;10.02;2.38;;;;;;;28.71;47.99;95239.84;5084526;28;20028;-30
2023/08/28 11:19:53;;;;;;;11.82;2.85;;;;;;;28.42;48.15;95244.47;5084211;28;20028;-30
2023/08/28 11:22:40;;;;;;;11.98;2.45;;;;;;;28.57;47.82;95235.91;5084065;28;20024;-30
2023/08/28 11:25:07;;;;;;;9.68;2.60;;;;;;;28.66;47.17;95235.25;5086811;28;20024;-30
2023/08/28 11:27:43;;;;;;;9.25;2.20;;;;;;;28.36;47.92;95232.81;5082728;28;20488;-31
2023/08/28 11:30:10;;;;;;;9.65;2.10;;;;;;;28.54;46.34;95245.44;5083975;28;20024;-31